Nearby METAR Reports

 

KMGY - Dayton, Ohio, USA
Distance from station: N 3mi, 5km
Updated: Sat, 15-Dec-2018 10:53pm EST
Light rain, Mist, Overcast
Light rain, Mist, Overcast
 Wind from N
Wind: N 12 mph , 19 km/h
Temperature: 43°F , 6°C
Wind Chill: 37°F , 3°C
Dew Point: 43°F , 6°C
Humidity: 100%
Barometer: 29.92 inHg , 1013.2 hPa
Summary: Light rain, Mist
Clouds: Overcast
Visibility: 3 miles , 5 km
Cloud details: Overcast 400 ft
2018/12/16 03:53 KMGY 160353Z AUTO 01010KT 3SM -RA BR OVC004 06/06 A2992 RMK AO2 SLP135 P0000 T00560056
KMWO - Middletown/Hook, Ohio, USA
Distance from station: W 9mi, 14km
Updated: Sat, 15-Dec-2018 10:55pm EST
Overcast
Overcast
 Wind from N
Wind: N 12 mph , 19 km/h
Temperature: 41°F , 5°C
Wind Chill: 34°F , 1°C
Dew Point: 39°F , 4°C
Humidity: 93%
Barometer: 29.95 inHg , 1014.2 hPa
Clouds: Overcast
Visibility: 10 miles , 16 km
Cloud details: Overcast 800 ft
2018/12/16 03:55 KMWO 160355Z AUTO 36010KT 10SM OVC008 05/04 A2995 RMK AO2 T00510043
 
KHAO - Hamilton, Ohio, USA
Distance from station: SW 20mi, 32km
Updated: Sat, 15-Dec-2018 10:53pm EST
Overcast
Overcast
 Wind from N
Wind: N 9 mph , 15 km/h
Temperature: 43°F , 6°C
Wind Chill: 38°F , 3°C
Dew Point: 39°F , 4°C
Humidity: 87%
Barometer: 29.94 inHg , 1013.9 hPa
Clouds: Overcast
Visibility: 8 miles , 13 km
Cloud details: Mostly cloudy 900 ft
Overcast 1700 ft
2018/12/16 03:53 KHAO 160353Z AUTO 35008KT 8SM BKN009 OVC017 06/04 A2994 RMK AO2 RAE0256 SLP142 P0000 T00560044
KFFO - Wright Paterson, Ohio, USA
Distance from station: NNE 21mi, 34km
Updated: Sat, 15-Dec-2018 10:56pm EST
Mist, Overcast
Mist, Overcast
 Wind from N
Wind: N 9 mph , 15 km/h
Temperature: 43°F , 6°C
Wind Chill: 38°F , 3°C
Dew Point: 41°F , 5°C
Humidity: 93%
Barometer: 29.93 inHg , 1013.5 hPa
Summary: Mist
Clouds: Overcast
Visibility: 5 miles , 8 km
Cloud details: Overcast 500 ft
2018/12/16 03:56 KFFO 160356Z 01008KT 5SM BR OVC005 06/05 A2993 RMK AO2A SLP142 P0001 T00580046
 
KDAY - Dayton, Ohio, USA
Distance from station: N 24mi, 39km
Updated: Sat, 15-Dec-2018 10:56pm EST
Light drizzle, Mist, Overcast
Light drizzle, Mist, Overcast
 Wind from N
Wind: N 15 mph , 24 km/h
Temperature: 41°F , 5°C
Wind Chill: 33°F , 1°C
Dew Point: 39°F , 4°C
Humidity: 93%
Barometer: 29.96 inHg , 1014.6 hPa
Summary: Light drizzle, Mist
Clouds: Overcast
Visibility: 3 miles , 5 km
Cloud details: Overcast 400 ft
2018/12/16 03:56 KDAY 160356Z 01013KT 3SM -DZ BR OVC004 05/04 A2996 RMK AO2 SLP148 P0000 T00500039 $
KILN - Wilmington, Ohio, USA
Distance from station: ESE 25mi, 39km
Updated: Sat, 15-Dec-2018 10:54pm EST
Mist, Overcast
Mist, Overcast
 Wind from N
Wind: N 13 mph , 20 km/h
Temperature: 46°F , 8°C
Wind Chill: 40°F , 4°C
Dew Point: 45°F , 7°C
Humidity: 93%
Barometer: 29.89 inHg , 1012.2 hPa
Summary: Mist
Clouds: Overcast
Visibility: 2 1/2 miles , 4 km
Cloud details: Overcast 200 ft
2018/12/16 03:54 KILN 160354Z AUTO 01011KT 2 1/2SM BR OVC002 08/07 A2989 RMK AO2 SLP135 T00780072
 
KSGH - Springfield Muni, Ohio, USA
Distance from station: NE 29mi, 46km
Updated: Sat, 15-Dec-2018 10:56pm EST
Light rain, Mist, Overcast
Light rain, Mist, Overcast
 Wind from NNE
Wind: NNE 13 mph , 20 km/h
Temperature: 41°F , 5°C
Wind Chill: 34°F , 1°C
Dew Point: 41°F , 5°C
Humidity: 100%
Barometer: 29.92 inHg , 1013.2 hPa
Summary: Light rain, Mist
Clouds: Overcast
Visibility: 4 miles , 6 km
Cloud details: Overcast 300 ft
2018/12/16 03:56 KSGH 160356Z AUTO 03011KT 4SM -RA BR OVC003 05/05 A2992 RMK AO2 SLP140 P0001 T00500050 400830050
KI69 - Batavia, Ohio, USA
Distance from station: S 32mi, 52km
Updated: Sat, 15-Dec-2018 10:55pm EST
Mist, Overcast
Mist, Overcast
 Wind from calm
Wind: Calm
Temperature: 46°F , 8°C
Dew Point: 46°F , 8°C
Humidity: 100%
Barometer: 29.92 inHg , 1013.2 hPa
Summary: Mist
Clouds: Overcast
Visibility: 3/4 mile , 1.2 km
Cloud details: Overcast 300 ft
2018/12/16 03:55 KI69 160355Z AUTO 00000KT 3/4SM BR OVC003 08/08 A2992 RMK AO2 T00830083
 
KLUK - Cincinnat/Lunken, Ohio, USA
Distance from station: SSW 33mi, 53km
Updated: Sat, 15-Dec-2018 10:53pm EST
Overcast
Overcast
 Wind from N
Wind: N 9 mph , 15 km/h
Temperature: 45°F , 7°C
Wind Chill: 40°F , 4°C
Dew Point: 43°F , 6°C
Humidity: 93%
Barometer: 29.94 inHg , 1013.9 hPa
Clouds: Overcast
Visibility: 7 miles , 11 km
Cloud details: Overcast 600 ft
2018/12/16 03:53 KLUK 160353Z 35008KT 7SM OVC006 07/06 A2994 RMK AO2 SLP138 T00720061
KCVG - Covington, Kentucky, USA
Distance from station: SSW 42mi, 67km
Updated: Sat, 15-Dec-2018 10:52pm EST
Mist, Overcast
Mist, Overcast
 Wind from N
Wind: N 13 mph , 20 km/h
Temperature: 43°F , 6°C
Wind Chill: 36°F , 2°C
Dew Point: 43°F , 6°C
Humidity: 100%
Barometer: 29.92 inHg , 1013.2 hPa
Summary: Mist
Clouds: Overcast
Visibility: 1/4 mile , 0.4 km
Cloud details: Overcast 200 ft
2018/12/16 03:52 KCVG 160352Z 35011KT 1/4SM R18C/P6000FT BR OVC002 06/06 A2992 RMK AO2 SFC VIS 1 SLP131 T00610056 $
 
KVES - Versailles, Ohio, USA
Distance from station: NNW 47mi, 76km
Updated: Sat, 15-Dec-2018 10:50pm EST
Mist, Overcast
Mist, Overcast
 Wind from NNE
Wind: NNE 13 mph , 20 km/h, Gust: 18 mph , 30 km/h
Temperature: 36°F , 2°C
Wind Chill: 27°F , -3°C
Dew Point: 36°F , 2°C
Humidity: 100%
Barometer: 29.98 inHg , 1015.2 hPa
Summary: Mist
Clouds: Overcast
Visibility: 3 miles , 5 km
Cloud details: Overcast 400 ft
2018/12/16 03:50 KVES 160350Z AUTO 02011G16KT 3SM BR OVC004 02/02 A2998 RMK AO2